sensor_id;sensor_type;location;lat;lon;timestamp;temperature;humidity
84340;SHT30;74521;45.618;5.212;2023-12-20T00:02:03;20.23;46.32
84340;SHT30;74521;45.618;5.212;2023-12-20T00:04:30;20.26;46.27
84340;SHT30;74521;45.618;5.212;2023-12-20T00:06:56;20.25;46.27
84340;SHT30;74521;45.618;5.212;2023-12-20T00:09:23;20.25;46.31
84340;SHT30;74521;45.618;5.212;2023-12-20T00:11:49;20.22;46.36
84340;SHT30;74521;45.618;5.212;2023-12-20T00:14:16;20.22;46.35
84340;SHT30;74521;45.618;5.212;2023-12-20T00:16:44;20.22;46.40
84340;SHT30;74521;45.618;5.212;2023-12-20T00:19:11;20.20;46.49
84340;SHT30;74521;45.618;5.212;2023-12-20T00:21:37;20.20;46.49
84340;SHT30;74521;45.618;5.212;2023-12-20T00:24:04;20.22;46.45
84340;SHT30;74521;45.618;5.212;2023-12-20T00:26:31;20.23;46.36
84340;SHT30;74521;45.618;5.212;2023-12-20T00:28:58;20.25;46.37
84340;SHT30;74521;45.618;5.212;2023-12-20T00:31:24;20.23;46.33
84340;SHT30;74521;45.618;5.212;2023-12-20T00:33:52;20.23;46.38
84340;SHT30;74521;45.618;5.212;2023-12-20T00:36:19;20.23;46.38
84340;SHT30;74521;45.618;5.212;2023-12-20T00:38:46;20.26;46.38
84340;SHT30;74521;45.618;5.212;2023-12-20T00:41:13;20.22;46.34
84340;SHT30;74521;45.618;5.212;2023-12-20T00:43:39;20.23;46.37
84340;SHT30;74521;45.618;5.212;2023-12-20T00:46:06;20.22;46.35
84340;SHT30;74521;45.618;5.212;2023-12-20T00:48:33;20.22;46.39
84340;SHT30;74521;45.618;5.212;2023-12-20T00:51:01;20.22;46.49
84340;SHT30;74521;45.618;5.212;2023-12-20T00:53:28;20.23;46.46
84340;SHT30;74521;45.618;5.212;2023-12-20T00:55:54;20.22;46.39
84340;SHT30;74521;45.618;5.212;2023-12-20T00:58:21;20.25;46.43
84340;SHT30;74521;45.618;5.212;2023-12-20T01:00:47;20.23;46.39
84340;SHT30;74521;45.618;5.212;2023-12-20T01:03:14;20.26;46.45
84340;SHT30;74521;45.618;5.212;2023-12-20T01:05:41;20.26;46.40
84340;SHT30;74521;45.618;5.212;2023-12-20T01:08:09;20.25;46.42
84340;SHT30;74521;45.618;5.212;2023-12-20T01:10:35;20.25;46.39
84340;SHT30;74521;45.618;5.212;2023-12-20T01:13:02;20.23;46.44
84340;SHT30;74521;45.618;5.212;2023-12-20T01:15:29;20.25;46.45
84340;SHT30;74521;45.618;5.212;2023-12-20T01:17:55;20.20;46.41
84340;SHT30;74521;45.618;5.212;2023-12-20T01:20:24;20.25;46.43
84340;SHT30;74521;45.618;5.212;2023-12-20T01:22:51;20.22;46.45
84340;SHT30;74521;45.618;5.212;2023-12-20T01:25:19;20.23;46.43
84340;SHT30;74521;45.618;5.212;2023-12-20T01:27:46;20.23;46.38
84340;SHT30;74521;45.618;5.212;2023-12-20T01:30:13;20.22;46.42
84340;SHT30;74521;45.618;5.212;2023-12-20T01:32:39;20.25;46.49
84340;SHT30;74521;45.618;5.212;2023-12-20T01:35:07;20.22;46.45
84340;SHT30;74521;45.618;5.212;2023-12-20T01:37:33;20.23;46.44
84340;SHT30;74521;45.618;5.212;2023-12-20T01:40:00;20.23;46.39
84340;SHT30;74521;45.618;5.212;2023-12-20T01:42:29;20.23;46.39
84340;SHT30;74521;45.618;5.212;2023-12-20T01:44:55;20.20;46.35
84340;SHT30;74521;45.618;5.212;2023-12-20T01:47:22;20.20;46.41
84340;SHT30;74521;45.618;5.212;2023-12-20T01:49:49;20.22;46.44
84340;SHT30;74521;45.618;5.212;2023-12-20T01:52:16;20.19;46.50
84340;SHT30;74521;45.618;5.212;2023-12-20T01:54:43;20.20;46.60
84340;SHT30;74521;45.618;5.212;2023-12-20T01:57:10;20.19;46.53
84340;SHT30;74521;45.618;5.212;2023-12-20T01:59:39;20.22;46.42
84340;SHT30;74521;45.618;5.212;2023-12-20T02:02:07;20.20;46.49
84340;SHT30;74521;45.618;5.212;2023-12-20T02:04:34;20.19;46.50
84340;SHT30;74521;45.618;5.212;2023-12-20T02:07:02;20.23;46.51
84340;SHT30;74521;45.618;5.212;2023-12-20T02:09:30;20.20;46.42
84340;SHT30;74521;45.618;5.212;2023-12-20T02:11:57;20.22;46.40
84340;SHT30;74521;45.618;5.212;2023-12-20T02:14:24;20.22;46.46
84340;SHT30;74521;45.618;5.212;2023-12-20T02:16:52;20.22;46.45
84340;SHT30;74521;45.618;5.212;2023-12-20T02:19:19;20.20;46.42
84340;SHT30;74521;45.618;5.212;2023-12-20T02:21:47;20.19;46.51
84340;SHT30;74521;45.618;5.212;2023-12-20T02:24:14;20.17;46.61
84340;SHT30;74521;45.618;5.212;2023-12-20T02:26:43;20.22;46.54
84340;SHT30;74521;45.618;5.212;2023-12-20T02:29:10;20.22;46.56
84340;SHT30;74521;45.618;5.212;2023-12-20T02:31:36;20.22;46.59
84340;SHT30;74521;45.618;5.212;2023-12-20T02:34:03;20.23;46.55
84340;SHT30;74521;45.618;5.212;2023-12-20T02:36:29;20.25;46.55
84340;SHT30;74521;45.618;5.212;2023-12-20T02:38:58;20.22;46.54
84340;SHT30;74521;45.618;5.212;2023-12-20T02:41:25;20.23;46.52
84340;SHT30;74521;45.618;5.212;2023-12-20T02:43:51;20.22;46.47
84340;SHT30;74521;45.618;5.212;2023-12-20T02:46:18;20.23;46.49
84340;SHT30;74521;45.618;5.212;2023-12-20T02:48:45;20.20;46.51
84340;SHT30;74521;45.618;5.212;2023-12-20T02:51:12;20.19;46.67
84340;SHT30;74521;45.618;5.212;2023-12-20T02:53:39;20.20;46.66
84340;SHT30;74521;45.618;5.212;2023-12-20T02:56:07;20.19;46.71
84340;SHT30;74521;45.618;5.212;2023-12-20T02:58:33;20.22;46.60
84340;SHT30;74521;45.618;5.212;2023-12-20T03:01:00;20.20;46.60
84340;SHT30;74521;45.618;5.212;2023-12-20T03:03:27;20.20;46.55
84340;SHT30;74521;45.618;5.212;2023-12-20T03:05:53;20.22;46.53
84340;SHT30;74521;45.618;5.212;2023-12-20T03:08:20;20.23;46.56
84340;SHT30;74521;45.618;5.212;2023-12-20T03:10:46;20.19;46.65
84340;SHT30;74521;45.618;5.212;2023-12-20T03:16:36;20.19;46.58
84340;SHT30;74521;45.618;5.212;2023-12-20T03:19:03;20.19;46.58
84340;SHT30;74521;45.618;5.212;2023-12-20T03:21:29;20.20;46.57
84340;SHT30;74521;45.618;5.212;2023-12-20T03:23:56;20.20;46.65
84340;SHT30;74521;45.618;5.212;2023-12-20T03:26:23;20.19;46.60
84340;SHT30;74521;45.618;5.212;2023-12-20T03:28:49;20.19;46.56
84340;SHT30;74521;45.618;5.212;2023-12-20T03:31:16;20.20;46.54
84340;SHT30;74521;45.618;5.212;2023-12-20T03:33:44;20.20;46.61
84340;SHT30;74521;45.618;5.212;2023-12-20T03:36:11;20.20;46.63
84340;SHT30;74521;45.618;5.212;2023-12-20T03:38:37;20.20;46.60
84340;SHT30;74521;45.618;5.212;2023-12-20T03:41:04;20.22;46.62
84340;SHT30;74521;45.618;5.212;2023-12-20T03:43:31;20.25;46.54
84340;SHT30;74521;45.618;5.212;2023-12-20T03:45:56;20.20;46.50
84340;SHT30;74521;45.618;5.212;2023-12-20T03:48:24;20.19;46.53
84340;SHT30;74521;45.618;5.212;2023-12-20T03:50:52;20.17;46.64
84340;SHT30;74521;45.618;5.212;2023-12-20T03:53:18;20.19;46.67
84340;SHT30;74521;45.618;5.212;2023-12-20T03:55:45;20.17;46.75
84340;SHT30;74521;45.618;5.212;2023-12-20T03:58:11;20.19;46.76
84340;SHT30;74521;45.618;5.212;2023-12-20T04:00:38;20.20;46.80
84340;SHT30;74521;45.618;5.212;2023-12-20T04:03:05;20.22;46.86
84340;SHT30;74521;45.618;5.212;2023-12-20T04:05:31;20.20;46.81
84340;SHT30;74521;45.618;5.212;2023-12-20T04:08:01;20.20;46.83
84340;SHT30;74521;45.618;5.212;2023-12-20T04:10:28;20.25;46.83
84340;SHT30;74521;45.618;5.212;2023-12-20T04:12:55;20.22;46.80
84340;SHT30;74521;45.618;5.212;2023-12-20T04:15:21;20.19;46.78
84340;SHT30;74521;45.618;5.212;2023-12-20T04:17:48;20.19;46.76
84340;SHT30;74521;45.618;5.212;2023-12-20T04:20:15;20.22;46.79
84340;SHT30;74521;45.618;5.212;2023-12-20T04:22:41;20.17;46.66
84340;SHT30;74521;45.618;5.212;2023-12-20T04:25:10;20.20;46.84
84340;SHT30;74521;45.618;5.212;2023-12-20T04:27:36;20.19;46.83
84340;SHT30;74521;45.618;5.212;2023-12-20T04:30:04;20.22;46.80
84340;SHT30;74521;45.618;5.212;2023-12-20T04:32:31;20.22;46.80
84340;SHT30;74521;45.618;5.212;2023-12-20T04:34:57;20.22;46.80
84340;SHT30;74521;45.618;5.212;2023-12-20T04:37:23;20.23;46.88
84340;SHT30;74521;45.618;5.212;2023-12-20T04:39:50;20.22;46.91
84340;SHT30;74521;45.618;5.212;2023-12-20T04:42:18;20.20;46.86
84340;SHT30;74521;45.618;5.212;2023-12-20T04:44:45;20.20;46.78
84340;SHT30;74521;45.618;5.212;2023-12-20T04:47:11;20.22;46.71
84340;SHT30;74521;45.618;5.212;2023-12-20T04:49:38;20.19;46.71
84340;SHT30;74521;45.618;5.212;2023-12-20T04:52:05;20.19;46.73
84340;SHT30;74521;45.618;5.212;2023-12-20T04:54:32;20.19;46.84
84340;SHT30;74521;45.618;5.212;2023-12-20T04:56:58;20.19;46.90
84340;SHT30;74521;45.618;5.212;2023-12-20T04:59:26;20.20;46.86
84340;SHT30;74521;45.618;5.212;2023-12-20T05:01:53;20.22;46.77
84340;SHT30;74521;45.618;5.212;2023-12-20T05:04:20;20.20;46.81
84340;SHT30;74521;45.618;5.212;2023-12-20T05:06:46;20.20;46.83
84340;SHT30;74521;45.618;5.212;2023-12-20T05:09:15;20.25;46.91
84340;SHT30;74521;45.618;5.212;2023-12-20T05:11:41;20.25;46.89
84340;SHT30;74521;45.618;5.212;2023-12-20T05:14:08;20.22;46.92
84340;SHT30;74521;45.618;5.212;2023-12-20T05:16:36;20.22;46.81
84340;SHT30;74521;45.618;5.212;2023-12-20T05:19:03;20.20;46.78
84340;SHT30;74521;45.618;5.212;2023-12-20T05:21:32;20.17;46.81
84340;SHT30;74521;45.618;5.212;2023-12-20T05:23:58;20.17;46.77
84340;SHT30;74521;45.618;5.212;2023-12-20T05:26:25;20.17;46.87
84340;SHT30;74521;45.618;5.212;2023-12-20T05:28:52;20.17;46.93
84340;SHT30;74521;45.618;5.212;2023-12-20T05:31:18;20.19;46.86
84340;SHT30;74521;45.618;5.212;2023-12-20T05:33:45;20.20;46.80
84340;SHT30;74521;45.618;5.212;2023-12-20T05:36:12;20.22;46.81
84340;SHT30;74521;45.618;5.212;2023-12-20T05:38:40;20.22;46.74
84340;SHT30;74521;45.618;5.212;2023-12-20T05:41:07;20.22;46.73
84340;SHT30;74521;45.618;5.212;2023-12-20T05:43:33;20.20;46.67
84340;SHT30;74521;45.618;5.212;2023-12-20T05:46:00;20.23;46.69
84340;SHT30;74521;45.618;5.212;2023-12-20T05:48:26;20.19;46.69
84340;SHT30;74521;45.618;5.212;2023-12-20T05:50:55;20.17;46.66
84340;SHT30;74521;45.618;5.212;2023-12-20T05:53:21;20.19;46.65
84340;SHT30;74521;45.618;5.212;2023-12-20T05:55:48;20.17;46.73
84340;SHT30;74521;45.618;5.212;2023-12-20T05:58:14;20.16;46.76
84340;SHT30;74521;45.618;5.212;2023-12-20T06:00:41;20.17;46.68
84340;SHT30;74521;45.618;5.212;2023-12-20T06:03:08;20.17;46.65
84340;SHT30;74521;45.618;5.212;2023-12-20T06:05:35;20.20;46.66
84340;SHT30;74521;45.618;5.212;2023-12-20T06:08:03;20.20;46.71
84340;SHT30;74521;45.618;5.212;2023-12-20T06:10:30;20.17;46.62
84340;SHT30;74521;45.618;5.212;2023-12-20T06:12:56;20.20;46.67
84340;SHT30;74521;45.618;5.212;2023-12-20T06:15:24;20.17;46.60
84340;SHT30;74521;45.618;5.212;2023-12-20T06:17:50;20.19;46.58
84340;SHT30;74521;45.618;5.212;2023-12-20T06:20:17;20.19;46.55
84340;SHT30;74521;45.618;5.212;2023-12-20T06:22:44;20.17;46.53
84340;SHT30;74521;45.618;5.212;2023-12-20T06:25:12;20.16;46.55
84340;SHT30;74521;45.618;5.212;2023-12-20T06:27:38;20.16;46.54
84340;SHT30;74521;45.618;5.212;2023-12-20T06:30:07;20.15;46.59
84340;SHT30;74521;45.618;5.212;2023-12-20T06:32:34;20.15;46.53
84340;SHT30;74521;45.618;5.212;2023-12-20T06:35:01;20.15;46.48
84340;SHT30;74521;45.618;5.212;2023-12-20T06:37:27;20.17;46.50
84340;SHT30;74521;45.618;5.212;2023-12-20T06:39:54;20.19;46.50
84340;SHT30;74521;45.618;5.212;2023-12-20T06:42:23;20.15;46.55
84340;SHT30;74521;45.618;5.212;2023-12-20T06:44:50;20.16;46.50
84340;SHT30;74521;45.618;5.212;2023-12-20T06:47:16;20.17;46.48
84340;SHT30;74521;45.618;5.212;2023-12-20T06:49:43;20.15;46.46
84340;SHT30;74521;45.618;5.212;2023-12-20T06:52:09;20.17;46.49
84340;SHT30;74521;45.618;5.212;2023-12-20T06:54:36;20.13;46.51
84340;SHT30;74521;45.618;5.212;2023-12-20T06:57:03;20.13;46.53
84340;SHT30;74521;45.618;5.212;2023-12-20T06:59:31;20.10;46.57
84340;SHT30;74521;45.618;5.212;2023-12-20T07:01:58;20.13;46.68
84340;SHT30;74521;45.618;5.212;2023-12-20T07:04:24;20.13;46.61
84340;SHT30;74521;45.618;5.212;2023-12-20T07:06:51;20.16;46.65
84340;SHT30;74521;45.618;5.212;2023-12-20T07:09:22;20.15;46.64
84340;SHT30;74521;45.618;5.212;2023-12-20T07:11:48;20.13;46.59
84340;SHT30;74521;45.618;5.212;2023-12-20T07:14:15;20.16;46.59
84340;SHT30;74521;45.618;5.212;2023-12-20T07:16:43;20.16;46.53
84340;SHT30;74521;45.618;5.212;2023-12-20T07:19:10;20.16;46.43
84340;SHT30;74521;45.618;5.212;2023-12-20T07:21:36;20.15;46.41
84340;SHT30;74521;45.618;5.212;2023-12-20T07:24:03;20.15;46.48
84340;SHT30;74521;45.618;5.212;2023-12-20T07:26:30;20.13;46.42
84340;SHT30;74521;45.618;5.212;2023-12-20T07:28:56;20.12;46.49
84340;SHT30;74521;45.618;5.212;2023-12-20T07:31:24;20.13;46.53
84340;SHT30;74521;45.618;5.212;2023-12-20T07:33:52;20.12;46.53
84340;SHT30;74521;45.618;5.212;2023-12-20T07:36:19;20.15;46.48
84340;SHT30;74521;45.618;5.212;2023-12-20T07:38:46;20.17;46.48
84340;SHT30;74521;45.618;5.212;2023-12-20T07:41:13;20.16;46.51
84340;SHT30;74521;45.618;5.212;2023-12-20T07:43:41;20.19;46.51
84340;SHT30;74521;45.618;5.212;2023-12-20T07:46:08;20.19;46.50
84340;SHT30;74521;45.618;5.212;2023-12-20T07:48:35;20.20;46.50
84340;SHT30;74521;45.618;5.212;2023-12-20T07:51:04;20.19;46.42
84340;SHT30;74521;45.618;5.212;2023-12-20T07:53:31;20.20;46.51
84340;SHT30;74521;45.618;5.212;2023-12-20T07:55:58;20.19;46.55
84340;SHT30;74521;45.618;5.212;2023-12-20T07:58:24;20.16;46.50
84340;SHT30;74521;45.618;5.212;2023-12-20T08:00:51;20.17;46.50
84340;SHT30;74521;45.618;5.212;2023-12-20T08:03:18;20.15;46.55
84340;SHT30;74521;45.618;5.212;2023-12-20T08:05:44;20.16;46.61
84340;SHT30;74521;45.618;5.212;2023-12-20T08:08:12;20.17;46.56
84340;SHT30;74521;45.618;5.212;2023-12-20T08:10:39;20.19;46.51
84340;SHT30;74521;45.618;5.212;2023-12-20T08:13:05;20.19;46.49
84340;SHT30;74521;45.618;5.212;2023-12-20T08:15:33;20.20;46.50
84340;SHT30;74521;45.618;5.212;2023-12-20T08:18:00;20.20;46.60
84340;SHT30;74521;45.618;5.212;2023-12-20T08:20:27;20.22;46.63
84340;SHT30;74521;45.618;5.212;2023-12-20T08:22:53;20.25;46.56
84340;SHT30;74521;45.618;5.212;2023-12-20T08:25:21;20.23;46.62
84340;SHT30;74521;45.618;5.212;2023-12-20T08:27:48;20.25;46.59
84340;SHT30;74521;45.618;5.212;2023-12-20T08:30:14;20.25;46.59
84340;SHT30;74521;45.618;5.212;2023-12-20T08:32:42;20.23;46.67
84340;SHT30;74521;45.618;5.212;2023-12-20T08:35:09;20.23;46.93
84340;SHT30;74521;45.618;5.212;2023-12-20T08:37:36;20.26;46.95
84340;SHT30;74521;45.618;5.212;2023-12-20T08:40:03;20.27;47.13
84340;SHT30;74521;45.618;5.212;2023-12-20T08:42:31;20.30;47.20
84340;SHT30;74521;45.618;5.212;2023-12-20T08:44:58;20.37;47.06
84340;SHT30;74521;45.618;5.212;2023-12-20T08:47:25;20.40;46.98
84340;SHT30;74521;45.618;5.212;2023-12-20T08:49:52;20.40;46.82
84340;SHT30;74521;45.618;5.212;2023-12-20T08:52:21;20.43;46.86
84340;SHT30;74521;45.618;5.212;2023-12-20T08:54:48;20.44;47.03
84340;SHT30;74521;45.618;5.212;2023-12-20T08:57:17;20.44;46.95
84340;SHT30;74521;45.618;5.212;2023-12-20T08:59:46;20.45;47.05
84340;SHT30;74521;45.618;5.212;2023-12-20T09:02:13;20.48;46.98
84340;SHT30;74521;45.618;5.212;2023-12-20T09:04:40;20.48;46.96
84340;SHT30;74521;45.618;5.212;2023-12-20T09:07:07;20.51;46.96
84340;SHT30;74521;45.618;5.212;2023-12-20T09:09:47;20.51;46.92
84340;SHT30;74521;45.618;5.212;2023-12-20T09:12:13;20.54;46.91
84340;SHT30;74521;45.618;5.212;2023-12-20T09:14:40;20.51;46.90
84340;SHT30;74521;45.618;5.212;2023-12-20T09:17:08;20.53;46.85
84340;SHT30;74521;45.618;5.212;2023-12-20T09:19:36;20.54;46.88
84340;SHT30;74521;45.618;5.212;2023-12-20T09:22:03;20.55;46.88
84340;SHT30;74521;45.618;5.212;2023-12-20T09:24:30;20.55;46.81
84340;SHT30;74521;45.618;5.212;2023-12-20T09:26:57;20.55;46.80
84340;SHT30;74521;45.618;5.212;2023-12-20T09:29:24;20.54;46.87
84340;SHT30;74521;45.618;5.212;2023-12-20T09:31:50;20.55;46.81
84340;SHT30;74521;45.618;5.212;2023-12-20T09:34:18;20.54;46.84
84340;SHT30;74521;45.618;5.212;2023-12-20T09:36:45;20.54;46.81
84340;SHT30;74521;45.618;5.212;2023-12-20T09:39:13;20.55;46.79
84340;SHT30;74521;45.618;5.212;2023-12-20T09:41:43;20.57;46.96
84340;SHT30;74521;45.618;5.212;2023-12-20T09:44:14;20.58;46.87
84340;SHT30;74521;45.618;5.212;2023-12-20T09:46:44;20.61;46.83
84340;SHT30;74521;45.618;5.212;2023-12-20T09:49:11;20.61;46.79
84340;SHT30;74521;45.618;5.212;2023-12-20T09:51:40;20.64;46.86
84340;SHT30;74521;45.618;5.212;2023-12-20T09:54:08;20.64;46.79
84340;SHT30;74521;45.618;5.212;2023-12-20T09:56:37;20.61;46.75
84340;SHT30;74521;45.618;5.212;2023-12-20T09:59:03;20.63;46.85
84340;SHT30;74521;45.618;5.212;2023-12-20T10:01:31;20.64;46.90
84340;SHT30;74521;45.618;5.212;2023-12-20T10:04:00;20.64;46.93
84340;SHT30;74521;45.618;5.212;2023-12-20T10:06:27;20.65;46.96
84340;SHT30;74521;45.618;5.212;2023-12-20T10:08:55;20.64;46.96
84340;SHT30;74521;45.618;5.212;2023-12-20T10:11:21;20.64;47.06
84340;SHT30;74521;45.618;5.212;2023-12-20T10:13:49;20.64;47.00
84340;SHT30;74521;45.618;5.212;2023-12-20T10:16:16;20.64;47.06
84340;SHT30;74521;45.618;5.212;2023-12-20T10:18:42;20.65;46.94
84340;SHT30;74521;45.618;5.212;2023-12-20T10:21:09;20.65;47.00
84340;SHT30;74521;45.618;5.212;2023-12-20T10:23:37;20.68;46.98
84340;SHT30;74521;45.618;5.212;2023-12-20T10:26:05;20.67;47.03
84340;SHT30;74521;45.618;5.212;2023-12-20T10:28:33;20.64;47.00
84340;SHT30;74521;45.618;5.212;2023-12-20T10:31:00;20.65;47.06
84340;SHT30;74521;45.618;5.212;2023-12-20T10:33:28;20.64;47.00
84340;SHT30;74521;45.618;5.212;2023-12-20T10:35:55;20.63;46.97
84340;SHT30;74521;45.618;5.212;2023-12-20T10:38:22;20.64;46.95
84340;SHT30;74521;45.618;5.212;2023-12-20T10:40:54;20.63;46.99
84340;SHT30;74521;45.618;5.212;2023-12-20T10:43:25;20.61;46.99
84340;SHT30;74521;45.618;5.212;2023-12-20T10:45:52;20.63;47.01
84340;SHT30;74521;45.618;5.212;2023-12-20T10:48:20;20.64;46.93
84340;SHT30;74521;45.618;5.212;2023-12-20T10:50:52;20.64;47.04
84340;SHT30;74521;45.618;5.212;2023-12-20T10:53:21;20.64;46.97
84340;SHT30;74521;45.618;5.212;2023-12-20T10:55:51;20.65;46.94
84340;SHT30;74521;45.618;5.212;2023-12-20T10:58:20;20.64;46.91
84340;SHT30;74521;45.618;5.212;2023-12-20T11:00:58;20.64;46.90
84340;SHT30;74521;45.618;5.212;2023-12-20T11:03:27;20.64;46.98
84340;SHT30;74521;45.618;5.212;2023-12-20T11:05:59;20.64;46.94
84340;SHT30;74521;45.618;5.212;2023-12-20T11:08:30;20.63;46.99
84340;SHT30;74521;45.618;5.212;2023-12-20T11:11:03;20.61;47.01
84340;SHT30;74521;45.618;5.212;2023-12-20T11:13:34;20.61;46.98
84340;SHT30;74521;45.618;5.212;2023-12-20T11:16:04;20.61;46.97
84340;SHT30;74521;45.618;5.212;2023-12-20T11:18:31;20.61;46.94
84340;SHT30;74521;45.618;5.212;2023-12-20T11:21:01;20.64;46.95
84340;SHT30;74521;45.618;5.212;2023-12-20T11:23:29;20.64;47.01
84340;SHT30;74521;45.618;5.212;2023-12-20T11:25:57;20.64;47.01
84340;SHT30;74521;45.618;5.212;2023-12-20T11:28:25;20.63;47.04
84340;SHT30;74521;45.618;5.212;2023-12-20T11:30:54;20.64;47.12
84340;SHT30;74521;45.618;5.212;2023-12-20T11:33:24;20.65;47.20
84340;SHT30;74521;45.618;5.212;2023-12-20T11:35:51;20.64;47.18
84340;SHT30;74521;45.618;5.212;2023-12-20T11:38:20;20.61;47.11
84340;SHT30;74521;45.618;5.212;2023-12-20T11:40:48;20.61;47.06
84340;SHT30;74521;45.618;5.212;2023-12-20T11:43:29;20.60;47.21
84340;SHT30;74521;45.618;5.212;2023-12-20T11:46:02;20.61;47.27
84340;SHT30;74521;45.618;5.212;2023-12-20T11:48:31;20.64;47.15
84340;SHT30;74521;45.618;5.212;2023-12-20T11:50:58;20.65;47.15
84340;SHT30;74521;45.618;5.212;2023-12-20T11:53:28;20.64;47.17
84340;SHT30;74521;45.618;5.212;2023-12-20T11:55:56;20.63;47.25
84340;SHT30;74521;45.618;5.212;2023-12-20T11:58:23;20.63;47.20
84340;SHT30;74521;45.618;5.212;2023-12-20T12:00:50;20.63;47.25
84340;SHT30;74521;45.618;5.212;2023-12-20T12:03:17;20.63;47.25
84340;SHT30;74521;45.618;5.212;2023-12-20T12:05:46;20.64;47.28
84340;SHT30;74521;45.618;5.212;2023-12-20T12:08:13;20.64;47.29
84340;SHT30;74521;45.618;5.212;2023-12-20T12:10:40;20.61;47.31
84340;SHT30;74521;45.618;5.212;2023-12-20T12:13:07;20.61;47.23
84340;SHT30;74521;45.618;5.212;2023-12-20T12:15:35;20.63;47.21
84340;SHT30;74521;45.618;5.212;2023-12-20T12:18:02;20.63;47.24
84340;SHT30;74521;45.618;5.212;2023-12-20T12:20:28;20.64;47.20
84340;SHT30;74521;45.618;5.212;2023-12-20T12:23:00;20.65;47.23
84340;SHT30;74521;45.618;5.212;2023-12-20T12:25:28;20.63;47.23
84340;SHT30;74521;45.618;5.212;2023-12-20T12:27:55;20.67;47.23
84340;SHT30;74521;45.618;5.212;2023-12-20T12:30:22;20.64;47.24
84340;SHT30;74521;45.618;5.212;2023-12-20T12:32:50;20.67;47.26
84340;SHT30;74521;45.618;5.212;2023-12-20T12:35:17;20.65;47.32
84340;SHT30;74521;45.618;5.212;2023-12-20T12:37:44;20.68;47.22
84340;SHT30;74521;45.618;5.212;2023-12-20T12:40:13;20.67;47.19
84340;SHT30;74521;45.618;5.212;2023-12-20T12:42:41;20.67;47.29
84340;SHT30;74521;45.618;5.212;2023-12-20T12:45:09;20.65;47.26
84340;SHT30;74521;45.618;5.212;2023-12-20T12:47:37;20.70;47.23
84340;SHT30;74521;45.618;5.212;2023-12-20T12:50:04;20.67;47.16
84340;SHT30;74521;45.618;5.212;2023-12-20T12:52:31;20.68;47.18
84340;SHT30;74521;45.618;5.212;2023-12-20T12:54:57;20.75;47.12
84340;SHT30;74521;45.618;5.212;2023-12-20T12:57:25;20.75;47.07
84340;SHT30;74521;45.618;5.212;2023-12-20T12:59:52;20.78;47.07
84340;SHT30;74521;45.618;5.212;2023-12-20T13:02:19;20.78;47.05
84340;SHT30;74521;45.618;5.212;2023-12-20T13:04:45;20.81;47.08
84340;SHT30;74521;45.618;5.212;2023-12-20T13:07:12;20.82;47.07
84340;SHT30;74521;45.618;5.212;2023-12-20T13:09:39;20.90;47.13
84340;SHT30;74521;45.618;5.212;2023-12-20T13:12:07;20.85;47.16
84340;SHT30;74521;45.618;5.212;2023-12-20T13:14:35;20.88;47.17
84340;SHT30;74521;45.618;5.212;2023-12-20T13:17:02;20.88;47.16
84340;SHT30;74521;45.618;5.212;2023-12-20T13:19:30;20.90;47.09
84340;SHT30;74521;45.618;5.212;2023-12-20T13:21:56;20.91;47.12
84340;SHT30;74521;45.618;5.212;2023-12-20T13:24:23;20.91;47.06
84340;SHT30;74521;45.618;5.212;2023-12-20T13:26:50;20.94;47.04
84340;SHT30;74521;45.618;5.212;2023-12-20T13:29:17;20.94;46.99
84340;SHT30;74521;45.618;5.212;2023-12-20T13:31:45;20.95;46.98
84340;SHT30;74521;45.618;5.212;2023-12-20T13:34:11;20.96;46.99
84340;SHT30;74521;45.618;5.212;2023-12-20T13:36:38;20.96;47.02
84340;SHT30;74521;45.618;5.212;2023-12-20T13:39:05;20.96;47.01
84340;SHT30;74521;45.618;5.212;2023-12-20T13:41:32;20.94;46.93
84340;SHT30;74521;45.618;5.212;2023-12-20T13:43:58;20.96;46.93
84340;SHT30;74521;45.618;5.212;2023-12-20T13:46:26;20.95;46.97
84340;SHT30;74521;45.618;5.212;2023-12-20T13:48:55;20.96;46.94
84340;SHT30;74521;45.618;5.212;2023-12-20T13:51:21;20.96;46.98
84340;SHT30;74521;45.618;5.212;2023-12-20T13:53:48;20.96;46.97
84340;SHT30;74521;45.618;5.212;2023-12-20T13:56:15;20.98;46.95
84340;SHT30;74521;45.618;5.212;2023-12-20T13:58:42;20.98;46.94
84340;SHT30;74521;45.618;5.212;2023-12-20T14:01:09;20.99;46.95
84340;SHT30;74521;45.618;5.212;2023-12-20T14:03:36;20.99;46.92
84340;SHT30;74521;45.618;5.212;2023-12-20T14:06:04;20.99;46.95
84340;SHT30;74521;45.618;5.212;2023-12-20T14:08:31;20.98;46.88
84340;SHT30;74521;45.618;5.212;2023-12-20T14:10:57;20.96;46.87
84340;SHT30;74521;45.618;5.212;2023-12-20T14:13:26;20.95;46.84
84340;SHT30;74521;45.618;5.212;2023-12-20T14:15:53;20.95;46.82
84340;SHT30;74521;45.618;5.212;2023-12-20T14:18:19;20.96;46.86
84340;SHT30;74521;45.618;5.212;2023-12-20T14:20:47;20.94;46.88
84340;SHT30;74521;45.618;5.212;2023-12-20T14:23:17;20.98;46.94
84340;SHT30;74521;45.618;5.212;2023-12-20T14:25:44;20.95;46.97
84340;SHT30;74521;45.618;5.212;2023-12-20T14:28:10;20.94;46.88
84340;SHT30;74521;45.618;5.212;2023-12-20T14:30:39;20.94;46.93
84340;SHT30;74521;45.618;5.212;2023-12-20T14:33:06;20.95;46.91
84340;SHT30;74521;45.618;5.212;2023-12-20T14:35:33;20.96;46.91
84340;SHT30;74521;45.618;5.212;2023-12-20T14:37:59;20.96;46.91
84340;SHT30;74521;45.618;5.212;2023-12-20T14:40:27;20.94;46.92
84340;SHT30;74521;45.618;5.212;2023-12-20T14:42:54;20.96;46.97
84340;SHT30;74521;45.618;5.212;2023-12-20T14:45:22;20.95;46.93
84340;SHT30;74521;45.618;5.212;2023-12-20T14:47:48;20.95;47.01
84340;SHT30;74521;45.618;5.212;2023-12-20T14:50:15;20.94;46.93
84340;SHT30;74521;45.618;5.212;2023-12-20T14:52:44;20.94;46.89
84340;SHT30;74521;45.618;5.212;2023-12-20T14:55:11;20.96;46.82
84340;SHT30;74521;45.618;5.212;2023-12-20T14:57:39;20.94;46.86
84340;SHT30;74521;45.618;5.212;2023-12-20T15:00:06;20.95;46.81
84340;SHT30;74521;45.618;5.212;2023-12-20T15:02:33;20.98;46.83
84340;SHT30;74521;45.618;5.212;2023-12-20T15:05:00;21.01;46.81
84340;SHT30;74521;45.618;5.212;2023-12-20T15:07:27;21.01;46.80
84340;SHT30;74521;45.618;5.212;2023-12-20T15:09:54;21.03;46.84
84340;SHT30;74521;45.618;5.212;2023-12-20T15:12:21;21.05;46.87
84340;SHT30;74521;45.618;5.212;2023-12-20T15:14:49;21.05;46.90
84340;SHT30;74521;45.618;5.212;2023-12-20T15:17:16;21.03;46.86
84340;SHT30;74521;45.618;5.212;2023-12-20T15:19:43;21.08;46.82
84340;SHT30;74521;45.618;5.212;2023-12-20T15:22:09;21.08;46.88
84340;SHT30;74521;45.618;5.212;2023-12-20T15:24:36;21.08;46.82
84340;SHT30;74521;45.618;5.212;2023-12-20T15:27:06;21.12;46.92
84340;SHT30;74521;45.618;5.212;2023-12-20T15:29:32;21.13;46.96
84340;SHT30;74521;45.618;5.212;2023-12-20T15:32:00;21.16;46.97
84340;SHT30;74521;45.618;5.212;2023-12-20T15:34:28;21.18;46.95